Time;durP1;ratioP1;P1;durP2;ratioP2;P2;SDS_P1;SDS_P2;PMS_P1;PMS_P2;Temp;Humidity;BMP_temperature;BMP_pressure;BME280_temperature;BME280_humidity;BME280_pressure;Samples;Min_cycle;Max_cycle;Signal;HPM_P1;HPM_P2
2021/11/11 00:00:49;;;;;;;46.95;39.80;;;0.70;99.90;;;;;;4985899;28;20027;-72
2021/11/11 00:03:15;;;;;;;42.63;36.95;;;0.80;99.90;;;;;;4982053;28;20030;-74
2021/11/11 00:05:41;;;;;;;41.83;36.83;;;0.90;99.90;;;;;;4985544;28;20374;-72
2021/11/11 00:08:08;;;;;;;43.83;35.75;;;0.90;99.90;;;;;;4980866;28;20030;-72
2021/11/11 00:10:34;;;;;;;46.50;38.45;;;1.00;99.90;;;;;;4974735;28;20026;-72
2021/11/11 00:13:00;;;;;;;44.85;38.50;;;0.90;99.90;;;;;;4992502;28;20041;-71
2021/11/11 00:15:27;;;;;;;43.88;37.25;;;0.80;99.90;;;;;;4980521;28;20031;-72
2021/11/11 00:17:53;;;;;;;43.15;34.55;;;0.80;99.90;;;;;;4984580;28;20022;-72
2021/11/11 00:20:22;;;;;;;58.03;44.15;;;0.70;99.90;;;;;;4982733;28;20030;-72
2021/11/11 00:22:49;;;;;;;62.50;47.40;;;0.50;99.90;;;;;;4983060;28;20484;-74
2021/11/11 00:25:17;;;;;;;49.88;39.95;;;0.50;99.90;;;;;;4984224;28;20108;-72
2021/11/11 00:27:43;;;;;;;74.20;53.80;;;0.40;99.90;;;;;;4984331;28;20541;-72
2021/11/11 00:30:11;;;;;;;76.20;53.90;;;0.00;99.90;;;;;;4981525;28;20060;-72
2021/11/11 00:32:39;;;;;;;65.38;48.55;;;-0.10;99.90;;;;;;4984138;28;20034;-71
2021/11/11 00:35:08;;;;;;;165.48;73.40;;;0.00;99.90;;;;;;4982437;28;20054;-72
2021/11/11 00:37:34;;;;;;;79.85;53.35;;;0.10;99.90;;;;;;4971684;28;20080;-72
2021/11/11 00:39:59;;;;;;;44.28;37.60;;;0.00;99.90;;;;;;4983003;28;20019;-72
2021/11/11 00:42:25;;;;;;;90.47;61.00;;;0.00;99.90;;;;;;4979235;28;20501;-71
2021/11/11 00:44:51;;;;;;;61.17;47.08;;;-0.10;99.90;;;;;;4979578;28;20114;-72
2021/11/11 00:47:17;;;;;;;68.07;49.95;;;-0.10;99.90;;;;;;4982921;28;20030;-72
2021/11/11 00:49:43;;;;;;;231.77;87.63;;;-0.10;99.90;;;;;;4986478;28;20058;-72
2021/11/11 00:52:09;;;;;;;119.05;65.35;;;-0.50;99.90;;;;;;4987625;28;20385;-72
2021/11/11 00:54:36;;;;;;;46.97;40.05;;;-0.50;99.90;;;;;;4979107;28;20019;-74
2021/11/11 00:57:02;;;;;;;50.88;41.75;;;-0.30;99.90;;;;;;4985599;28;20117;-71
2021/11/11 00:59:28;;;;;;;77.93;54.88;;;-0.20;99.90;;;;;;4984013;28;20498;-72
2021/11/11 01:01:53;;;;;;;54.72;45.28;;;-0.20;99.90;;;;;;4977777;28;20026;-71
2021/11/11 01:04:18;;;;;;;46.55;41.30;;;-0.10;99.90;;;;;;4980830;28;20031;-72
2021/11/11 01:06:45;;;;;;;58.80;45.47;;;0.00;99.90;;;;;;4982609;28;20469;-71
2021/11/11 01:09:10;;;;;;;123.45;54.45;;;0.00;99.90;;;;;;4982305;28;20041;-72
2021/11/11 01:11:36;;;;;;;150.30;56.05;;;0.10;99.90;;;;;;4983641;28;20022;-72
2021/11/11 01:14:02;;;;;;;198.73;75.95;;;0.10;99.90;;;;;;4984315;28;20027;-72
2021/11/11 01:16:27;;;;;;;325.95;96.88;;;0.20;99.90;;;;;;4980822;28;20046;-71
2021/11/11 01:18:53;;;;;;;233.07;82.28;;;0.10;99.90;;;;;;4979201;28;20141;-71
2021/11/11 01:21:19;;;;;;;202.02;75.05;;;0.00;99.90;;;;;;4980554;28;20544;-72
2021/11/11 01:23:44;;;;;;;209.48;64.57;;;0.10;99.90;;;;;;4985324;28;20049;-72
2021/11/11 01:26:10;;;;;;;196.23;82.55;;;0.00;99.90;;;;;;4989575;28;20496;-72
2021/11/11 01:28:36;;;;;;;104.70;60.80;;;0.00;99.90;;;;;;4979508;28;20019;-73
2021/11/11 01:31:02;;;;;;;65.63;43.70;;;0.10;99.90;;;;;;4985769;28;20093;-72
2021/11/11 01:33:27;;;;;;;72.28;46.50;;;0.30;99.90;;;;;;4979710;28;20038;-72
2021/11/11 01:35:53;;;;;;;155.82;49.08;;;0.30;99.90;;;;;;4982947;28;20036;-72
2021/11/11 01:38:19;;;;;;;222.10;65.88;;;0.40;99.90;;;;;;4986000;28;20034;-72
2021/11/11 01:40:45;;;;;;;421.92;85.72;;;0.30;99.90;;;;;;4987028;28;20353;-71
2021/11/11 01:43:11;;;;;;;763.58;125.18;;;0.20;99.90;;;;;;4978834;28;20077;-71
2021/11/11 01:45:40;;;;;;;444.70;88.95;;;0.10;99.90;;;;;;4986927;28;20026;-72
2021/11/11 01:48:08;;;;;;;531.15;158.45;;;-0.10;99.90;;;;;;4984424;28;20026;-72
2021/11/11 01:50:37;;;;;;;430.88;129.60;;;-0.30;99.90;;;;;;4977935;28;20429;-72
2021/11/11 01:53:03;;;;;;;532.78;158.07;;;-0.40;99.90;;;;;;4984952;28;20105;-72
2021/11/11 01:55:29;;;;;;;519.33;142.27;;;-0.50;99.90;;;;;;4992116;28;20019;-71
2021/11/11 01:57:56;;;;;;;370.80;109.25;;;-0.40;99.90;;;;;;4984993;28;20026;-71
2021/11/11 02:00:25;;;;;;;577.72;165.43;;;-0.50;99.90;;;;;;4989689;28;20038;-71
2021/11/11 02:02:56;;;;;;;310.70;111.95;;;-0.50;99.90;;;;;;4986627;28;20389;-72
2021/11/11 02:05:22;;;;;;;369.08;120.65;;;-0.50;99.90;;;;;;4989714;28;20026;-72
2021/11/11 02:07:49;;;;;;;274.77;100.97;;;-0.70;99.90;;;;;;4988064;28;20025;-72
2021/11/11 02:10:15;;;;;;;238.02;85.30;;;-0.70;99.90;;;;;;4989463;28;20026;-71
2021/11/11 02:12:40;;;;;;;214.52;97.32;;;-0.70;99.90;;;;;;4986843;28;20031;-72
2021/11/11 02:15:07;;;;;;;367.70;120.57;;;-0.70;99.90;;;;;;4986531;28;20081;-72
2021/11/11 02:17:32;;;;;;;273.02;101.40;;;-0.80;99.90;;;;;;4985027;28;20081;-72
2021/11/11 02:20:06;;;;;;;340.20;120.88;;;-1.00;99.90;;;;;;4986584;28;20039;-72
2021/11/11 02:22:32;;;;;;;539.60;135.88;;;-0.80;99.90;;;;;;4984985;28;20022;-72
2021/11/11 02:24:57;;;;;;;279.50;110.38;;;-0.80;99.90;;;;;;4986017;28;20492;-72
2021/11/11 02:27:23;;;;;;;365.80;115.40;;;-0.80;99.90;;;;;;4984923;28;20058;-72
2021/11/11 02:29:49;;;;;;;236.15;81.65;;;-0.70;99.90;;;;;;4986094;28;20022;-72
2021/11/11 02:32:16;;;;;;;219.70;82.38;;;-0.60;99.90;;;;;;4984010;28;20054;-72
2021/11/11 02:34:43;;;;;;;129.48;65.47;;;-0.60;99.90;;;;;;4984974;28;20441;-71
2021/11/11 02:37:08;;;;;;;182.93;59.95;;;-0.40;99.90;;;;;;4984033;28;20058;-72
2021/11/11 02:39:36;;;;;;;428.00;91.45;;;-0.40;99.90;;;;;;4989330;28;20051;-72
2021/11/11 02:42:03;;;;;;;111.40;40.90;;;-0.40;99.90;;;;;;4982264;28;20038;-72
2021/11/11 02:44:29;;;;;;;144.80;46.65;;;-0.40;99.90;;;;;;4976387;28;20034;-72
2021/11/11 02:46:57;;;;;;;505.70;108.35;;;-0.20;99.90;;;;;;4973783;28;20045;-71
2021/11/11 02:49:23;;;;;;;146.98;59.65;;;-0.20;99.90;;;;;;4974259;28;20038;-72
2021/11/11 02:51:48;;;;;;;141.20;64.75;;;-0.20;99.90;;;;;;4982400;28;20023;-72
2021/11/11 02:54:14;;;;;;;130.43;56.90;;;-0.20;99.90;;;;;;4982244;28;20026;-72
2021/11/11 02:56:39;;;;;;;80.65;44.25;;;0.00;99.90;;;;;;4978432;28;20054;-72
2021/11/11 02:59:05;;;;;;;191.73;63.42;;;0.00;99.90;;;;;;4974818;28;20035;-72
2021/11/11 03:01:31;;;;;;;420.58;62.00;;;0.10;99.90;;;;;;4982427;28;20038;-73
2021/11/11 03:03:57;;;;;;;246.40;53.90;;;0.00;99.90;;;;;;4974260;28;20464;-72
2021/11/11 03:06:23;;;;;;;435.55;76.72;;;0.00;99.90;;;;;;4974149;28;20154;-72
2021/11/11 03:08:48;;;;;;;565.85;111.10;;;0.00;99.90;;;;;;4960116;28;20038;-72
2021/11/11 03:11:14;;;;;;;400.38;111.70;;;-0.10;99.90;;;;;;4993390;28;20073;-72
2021/11/11 03:13:40;;;;;;;455.60;101.07;;;-0.20;99.90;;;;;;4979439;28;20381;-73
2021/11/11 03:16:05;;;;;;;688.72;124.65;;;-0.20;99.90;;;;;;4973990;28;20039;-73
2021/11/11 03:18:31;;;;;;;696.90;116.72;;;-0.20;99.90;;;;;;4986977;28;20030;-72
2021/11/11 03:20:57;;;;;;;432.73;85.40;;;-0.30;99.90;;;;;;4979168;28;20026;-72
2021/11/11 03:23:22;;;;;;;430.85;143.07;;;-0.30;99.90;;;;;;4980983;28;20034;-72
2021/11/11 03:25:48;;;;;;;203.68;48.70;;;-0.30;99.90;;;;;;4973782;28;20022;-72
2021/11/11 03:28:14;;;;;;;199.23;79.70;;;-0.20;99.90;;;;;;4972790;28;20039;-72
2021/11/11 03:30:39;;;;;;;255.85;60.33;;;-0.10;99.90;;;;;;4977705;28;20710;-72
2021/11/11 03:33:06;;;;;;;155.57;56.35;;;-0.10;99.90;;;;;;4982801;28;20027;-73
2021/11/11 03:35:32;;;;;;;173.27;52.58;;;0.00;99.90;;;;;;4980933;28;20019;-73
2021/11/11 03:38:00;;;;;;;272.17;63.22;;;-0.10;99.90;;;;;;4980530;28;20759;-73
2021/11/11 03:40:29;;;;;;;200.32;46.00;;;-0.20;99.90;;;;;;4974602;28;20026;-72
2021/11/11 03:42:57;;;;;;;289.92;51.28;;;-0.30;99.90;;;;;;4975464;28;20050;-72
2021/11/11 03:45:23;;;;;;;407.25;75.97;;;-0.20;99.90;;;;;;4973797;28;20389;-72
2021/11/11 03:47:49;;;;;;;211.07;53.63;;;-0.30;99.90;;;;;;4985710;28;20065;-72
2021/11/11 03:50:16;;;;;;;246.15;70.97;;;-0.30;99.90;;;;;;4987995;28;20022;-72
2021/11/11 03:52:42;;;;;;;140.75;57.35;;;-0.40;99.90;;;;;;4972009;28;20500;-72
2021/11/11 03:55:09;;;;;;;292.42;97.53;;;-0.40;99.90;;;;;;4973547;28;20019;-72
2021/11/11 03:57:35;;;;;;;377.98;103.53;;;-0.30;99.90;;;;;;4973064;28;20027;-71
2021/11/11 04:00:02;;;;;;;638.80;146.45;;;-0.60;99.90;;;;;;4973444;28;20050;-71
2021/11/11 04:02:28;;;;;;;396.88;71.65;;;-0.90;99.90;;;;;;4973079;28;20102;-71
2021/11/11 04:04:54;;;;;;;453.77;138.23;;;-0.70;99.90;;;;;;4973244;28;20508;-71
2021/11/11 04:07:20;;;;;;;295.67;122.45;;;-0.80;99.90;;;;;;4973181;28;20058;-72
2021/11/11 04:09:45;;;;;;;378.70;129.45;;;-0.90;99.90;;;;;;4971946;28;20035;-72
2021/11/11 04:12:12;;;;;;;420.85;114.80;;;-0.90;99.90;;;;;;4972982;28;20101;-72
2021/11/11 04:14:38;;;;;;;180.13;80.18;;;-0.90;99.90;;;;;;4973634;28;20019;-72
2021/11/11 04:17:04;;;;;;;449.63;120.80;;;-0.90;99.90;;;;;;4972886;28;20042;-72
2021/11/11 04:19:29;;;;;;;131.63;45.53;;;-0.80;99.90;;;;;;4978632;28;20388;-72
2021/11/11 04:21:55;;;;;;;169.88;76.00;;;-0.80;99.90;;;;;;4984604;28;20064;-72
2021/11/11 04:24:21;;;;;;;136.45;56.65;;;-0.70;99.90;;;;;;4977534;28;20030;-71
2021/11/11 04:26:56;;;;;;;115.43;48.80;;;-0.70;99.90;;;;;;4983852;28;20023;-72
2021/11/11 04:29:25;;;;;;;714.33;122.75;;;-0.70;99.90;;;;;;4971723;28;20058;-72
2021/11/11 04:31:57;;;;;;;655.03;99.85;;;-0.70;99.90;;;;;;4972842;28;20026;-72
2021/11/11 04:34:24;;;;;;;597.45;86.88;;;-0.80;99.90;;;;;;4973122;28;20019;-75
2021/11/11 04:45:11;;;;;;;163.65;52.28;;;-0.60;99.90;;;;;;4972933;28;20042;-71
2021/11/11 04:47:58;;;;;;;183.13;49.05;;;-0.50;99.90;;;;;;4985087;28;20030;-72
2021/11/11 05:01:34;;;;;;;493.17;101.63;;;-0.50;99.90;;;;;;4972669;28;20166;-72
2021/11/11 05:04:00;;;;;;;225.00;36.90;;;-0.60;99.90;;;;;;4971535;28;20118;-72
2021/11/11 05:06:25;;;;;;;565.33;71.43;;;-0.50;99.90;;;;;;4989255;28;20090;-72
2021/11/11 05:08:51;;;;;;;319.00;47.92;;;-0.60;99.90;;;;;;4976695;28;20494;-72
2021/11/11 05:11:18;;;;;;;249.70;60.60;;;-0.60;99.90;;;;;;4986469;28;20370;-72
2021/11/11 05:13:43;;;;;;;138.82;35.03;;;-0.60;99.90;;;;;;4974682;28;20018;-72
2021/11/11 05:16:09;;;;;;;354.05;95.90;;;-0.60;99.90;;;;;;4983206;28;20499;-72
2021/11/11 05:18:34;;;;;;;466.70;74.03;;;-0.50;99.90;;;;;;4976183;28;20082;-73
2021/11/11 05:21:00;;;;;;;494.63;123.63;;;-0.60;99.90;;;;;;4978307;28;20027;-73
2021/11/11 05:23:25;;;;;;;230.98;63.28;;;-0.70;99.90;;;;;;4979711;28;20027;-74
2021/11/11 05:25:53;;;;;;;388.52;112.50;;;-0.70;99.90;;;;;;4988540;28;20027;-74
2021/11/11 05:28:19;;;;;;;431.30;134.88;;;-0.80;99.90;;;;;;4977244;28;20027;-73
2021/11/11 05:30:44;;;;;;;520.95;148.73;;;-0.90;99.90;;;;;;4981010;28;20468;-74
2021/11/11 05:33:10;;;;;;;540.70;136.43;;;-1.10;99.90;;;;;;4989069;28;20461;-74
2021/11/11 05:35:36;;;;;;;623.70;140.60;;;-1.20;99.90;;;;;;4979830;28;20034;-75
2021/11/11 05:38:01;;;;;;;439.27;129.88;;;-1.20;99.90;;;;;;4975917;28;20404;-74
2021/11/11 05:40:27;;;;;;;542.67;169.38;;;-1.30;99.90;;;;;;4975917;28;20081;-75
2021/11/11 05:42:53;;;;;;;291.73;93.13;;;-1.30;99.90;;;;;;4975566;28;20057;-75
2021/11/11 05:45:19;;;;;;;326.33;76.32;;;-1.30;99.90;;;;;;4975707;28;20397;-75
2021/11/11 05:47:45;;;;;;;361.48;92.75;;;-1.20;99.90;;;;;;4988698;28;20053;-74
2021/11/11 05:50:12;;;;;;;300.20;71.50;;;-1.20;99.90;;;;;;4988821;28;20026;-74
2021/11/11 05:52:38;;;;;;;323.67;64.65;;;-1.30;99.90;;;;;;4974287;28;20113;-72
2021/11/11 05:55:05;;;;;;;729.28;128.00;;;-1.20;99.90;;;;;;4974366;28;20169;-72
2021/11/11 05:57:30;;;;;;;126.22;42.28;;;-1.30;99.90;;;;;;4981056;28;20138;-71
2021/11/11 05:59:56;;;;;;;296.42;60.80;;;-1.10;99.90;;;;;;4978239;28;20046;-72
2021/11/11 06:02:22;;;;;;;120.47;39.10;;;-0.90;99.90;;;;;;4978035;28;20046;-74
2021/11/11 06:04:48;;;;;;;193.50;42.60;;;-0.80;99.90;;;;;;4987966;28;20042;-72
2021/11/11 06:07:13;;;;;;;251.70;45.65;;;-0.80;99.90;;;;;;4981569;28;20027;-72
2021/11/11 06:09:39;;;;;;;157.80;54.85;;;-0.70;99.90;;;;;;4973829;28;20441;-71
2021/11/11 06:12:05;;;;;;;138.02;40.55;;;-0.80;99.90;;;;;;4973986;28;20027;-71
2021/11/11 06:14:30;;;;;;;175.80;54.13;;;-0.80;99.90;;;;;;4993281;28;20400;-72
2021/11/11 06:16:56;;;;;;;404.60;99.03;;;-0.50;99.90;;;;;;4993207;28;20034;-71
2021/11/11 06:19:22;;;;;;;276.10;60.58;;;-0.70;99.90;;;;;;4988407;28;20038;-71
2021/11/11 06:21:48;;;;;;;238.70;84.80;;;-0.70;99.90;;;;;;4972491;28;20019;-71
2021/11/11 06:24:14;;;;;;;302.52;95.20;;;-0.80;99.90;;;;;;4981012;28;20034;-73
2021/11/11 06:26:41;;;;;;;142.40;46.90;;;-0.80;99.90;;;;;;4993129;28;20061;-71
2021/11/11 06:29:08;;;;;;;368.67;85.93;;;-0.80;99.90;;;;;;4988299;28;20030;-72
2021/11/11 06:31:34;;;;;;;354.23;85.45;;;-0.80;99.90;;;;;;4974786;28;20375;-72
2021/11/11 06:34:01;;;;;;;226.73;64.80;;;-0.90;99.90;;;;;;4992456;28;20034;-72
2021/11/11 06:36:27;;;;;;;175.73;63.47;;;-0.90;99.90;;;;;;4974641;28;20022;-71
2021/11/11 06:38:52;;;;;;;111.38;44.60;;;-0.80;99.90;;;;;;4974561;28;20049;-73
2021/11/11 06:41:18;;;;;;;163.80;56.42;;;-0.70;99.90;;;;;;4960703;28;20035;-71
2021/11/11 06:43:43;;;;;;;249.38;72.03;;;-0.70;99.90;;;;;;4992975;28;20162;-72
2021/11/11 06:46:10;;;;;;;440.02;86.82;;;-0.70;99.90;;;;;;4977632;28;20121;-72
2021/11/11 06:48:36;;;;;;;291.65;68.18;;;-0.70;99.90;;;;;;4975358;28;20362;-72
2021/11/11 06:51:02;;;;;;;93.22;33.17;;;-0.80;99.90;;;;;;4974205;28;20033;-72
2021/11/11 06:53:28;;;;;;;277.85;58.08;;;-0.70;99.90;;;;;;4973162;28;20030;-72
2021/11/11 06:55:53;;;;;;;211.60;66.00;;;-0.80;99.90;;;;;;4966938;28;20031;-72
2021/11/11 06:58:22;;;;;;;180.32;39.45;;;-0.80;99.90;;;;;;4973088;28;20393;-74
2021/11/11 07:00:50;;;;;;;584.67;96.40;;;-0.70;99.90;;;;;;4987448;28;20053;-72
2021/11/11 07:03:15;;;;;;;273.67;55.42;;;-0.60;99.90;;;;;;4975170;28;20454;-73
2021/11/11 07:05:41;;;;;;;150.90;37.30;;;-0.70;99.90;;;;;;4975834;28;20078;-73
2021/11/11 07:08:10;;;;;;;174.52;48.90;;;-0.60;99.90;;;;;;4980328;28;20080;-73
2021/11/11 07:10:37;;;;;;;62.13;26.85;;;-0.70;99.90;;;;;;4993584;28;20026;-73
2021/11/11 07:13:03;;;;;;;68.03;28.20;;;-0.70;99.90;;;;;;4993798;28;20019;-73
2021/11/11 07:15:28;;;;;;;84.97;31.48;;;-0.50;99.90;;;;;;4979252;28;20019;-75
2021/11/11 07:17:54;;;;;;;375.23;117.57;;;-0.40;99.90;;;;;;4973063;28;20061;-72
2021/11/11 07:20:19;;;;;;;272.58;89.97;;;-0.50;99.90;;;;;;4973069;28;20097;-75
2021/11/11 07:22:45;;;;;;;297.83;100.57;;;-0.80;99.90;;;;;;4973011;28;20031;-73
2021/11/11 07:25:13;;;;;;;206.55;64.60;;;-0.90;99.90;;;;;;4972557;28;20118;-73
2021/11/11 07:27:38;;;;;;;201.13;64.30;;;-1.00;99.90;;;;;;4980876;28;20105;-73
2021/11/11 07:30:08;;;;;;;129.45;46.38;;;-0.80;99.90;;;;;;4992547;28;20122;-73
2021/11/11 07:32:34;;;;;;;247.68;56.10;;;-1.00;99.90;;;;;;4984923;28;20051;-73
2021/11/11 07:34:59;;;;;;;334.65;94.30;;;-0.70;99.90;;;;;;4973900;28;20018;-73
2021/11/11 07:37:25;;;;;;;146.02;41.92;;;-0.70;99.90;;;;;;4972361;28;20070;-72
2021/11/11 07:39:52;;;;;;;427.13;85.20;;;-0.60;99.90;;;;;;4987304;28;20023;-73
2021/11/11 07:42:20;;;;;;;429.30;94.28;;;-0.70;99.90;;;;;;4983467;28;20019;-73
2021/11/11 07:44:46;;;;;;;335.20;67.93;;;-0.50;99.90;;;;;;4972440;28;20027;-73
2021/11/11 07:47:11;;;;;;;431.38;73.72;;;-0.50;99.90;;;;;;4973530;28;20058;-73
2021/11/11 07:49:37;;;;;;;705.72;143.68;;;-0.50;99.90;;;;;;4975354;28;20069;-73
2021/11/11 07:52:03;;;;;;;869.22;198.00;;;-0.70;99.90;;;;;;4991563;28;20109;-72
2021/11/11 07:54:28;;;;;;;741.08;143.70;;;-0.80;99.90;;;;;;4976665;28;20501;-73
2021/11/11 07:56:55;;;;;;;336.30;73.85;;;-0.80;99.90;;;;;;4973435;28;20022;-73
2021/11/11 07:59:21;;;;;;;232.52;59.58;;;-0.60;99.90;;;;;;4972239;28;20117;-72
2021/11/11 08:01:46;;;;;;;396.83;99.10;;;-0.40;99.90;;;;;;4973670;28;20077;-73
2021/11/11 08:04:12;;;;;;;218.60;82.25;;;-0.40;99.90;;;;;;4973446;28;20095;-73
2021/11/11 08:06:37;;;;;;;135.75;50.63;;;-0.20;99.90;;;;;;4981542;28;20452;-72
2021/11/11 08:09:03;;;;;;;62.05;33.83;;;-0.10;99.90;;;;;;4992569;28;20026;-72
2021/11/11 08:11:29;;;;;;;28.90;26.20;;;-0.10;99.90;;;;;;4992369;28;20474;-71
2021/11/11 08:13:55;;;;;;;50.60;26.63;;;0.10;99.90;;;;;;4991260;28;20091;-72
2021/11/11 08:16:21;;;;;;;57.85;28.33;;;0.30;99.90;;;;;;4992496;28;20136;-71
2021/11/11 08:18:46;;;;;;;31.67;28.25;;;0.30;99.90;;;;;;4991346;28;20222;-71
2021/11/11 08:21:12;;;;;;;34.63;20.63;;;0.40;99.90;;;;;;4992173;28;20026;-72
2021/11/11 08:23:38;;;;;;;40.97;20.85;;;0.60;99.90;;;;;;4992375;28;20029;-72
2021/11/11 08:26:05;;;;;;;57.53;34.55;;;0.70;99.90;;;;;;4983367;28;20033;-71
2021/11/11 08:28:32;;;;;;;87.25;37.53;;;0.60;99.90;;;;;;4970132;28;20121;-72
2021/11/11 08:30:57;;;;;;;93.47;39.35;;;0.30;99.90;;;;;;4969563;28;20382;-71
2021/11/11 08:33:23;;;;;;;40.63;28.63;;;0.30;99.90;;;;;;4959231;28;20085;-72
2021/11/11 08:35:49;;;;;;;178.05;67.45;;;0.30;99.90;;;;;;4975315;28;20086;-71
2021/11/11 08:38:15;;;;;;;247.35;71.43;;;0.10;99.90;;;;;;4987646;28;20478;-72
2021/11/11 08:40:41;;;;;;;101.07;43.15;;;-0.10;99.90;;;;;;4972710;28;20033;-71
2021/11/11 08:43:07;;;;;;;89.80;42.90;;;0.00;99.90;;;;;;4969973;28;20045;-71
2021/11/11 08:45:33;;;;;;;232.77;70.63;;;0.40;99.90;;;;;;4974819;28;20110;-71
2021/11/11 08:48:01;;;;;;;284.90;69.50;;;0.30;99.90;;;;;;4975384;28;20121;-72
2021/11/11 08:50:30;;;;;;;127.18;54.03;;;0.40;99.90;;;;;;4984948;28;20033;-71
2021/11/11 08:52:57;;;;;;;135.30;44.47;;;0.50;99.90;;;;;;4996054;28;20139;-72
2021/11/11 08:55:25;;;;;;;201.40;57.63;;;0.60;99.90;;;;;;4995926;28;20026;-72
2021/11/11 08:57:52;;;;;;;323.50;81.50;;;0.60;99.90;;;;;;4993083;28;20026;-72
2021/11/11 09:00:24;;;;;;;129.63;39.72;;;0.70;99.90;;;;;;4976506;28;20093;-72
2021/11/11 09:02:51;;;;;;;81.53;28.90;;;0.70;99.90;;;;;;4976437;28;20065;-72
2021/11/11 09:05:18;;;;;;;64.53;27.45;;;0.90;99.90;;;;;;4975295;28;20053;-72
2021/11/11 09:07:44;;;;;;;39.75;23.65;;;1.00;99.90;;;;;;4975064;28;20062;-72
2021/11/11 09:10:16;;;;;;;221.10;55.97;;;1.20;99.90;;;;;;4976192;28;20027;-72
2021/11/11 09:12:41;;;;;;;97.13;31.25;;;0.90;99.90;;;;;;4968258;28;20117;-72
2021/11/11 09:15:10;;;;;;;116.22;41.10;;;0.90;99.90;;;;;;4994366;28;20105;-72
2021/11/11 09:17:38;;;;;;;135.95;32.30;;;0.90;99.90;;;;;;4982399;28;20038;-72
2021/11/11 09:20:05;;;;;;;407.20;101.57;;;1.10;99.90;;;;;;4983434;28;20019;-72
2021/11/11 09:22:34;;;;;;;105.93;39.72;;;1.30;99.90;;;;;;4977258;28;20023;-71
2021/11/11 09:25:00;;;;;;;128.68;58.00;;;1.40;99.90;;;;;;4977279;28;20034;-73
2021/11/11 09:27:26;;;;;;;60.40;28.33;;;1.60;99.90;;;;;;4974740;28;20039;-72
2021/11/11 09:29:52;;;;;;;149.13;43.20;;;1.80;99.90;;;;;;4977701;28;20034;-71
2021/11/11 09:32:19;;;;;;;84.93;44.47;;;1.60;99.90;;;;;;4974776;28;20027;-71
2021/11/11 09:34:44;;;;;;;219.00;86.82;;;1.70;99.90;;;;;;4988050;28;20034;-73
2021/11/11 09:37:10;;;;;;;184.90;78.80;;;1.60;99.90;;;;;;4974921;28;20022;-72
2021/11/11 09:39:36;;;;;;;177.75;74.63;;;1.50;99.90;;;;;;4975616;28;20393;-72
2021/11/11 09:42:02;;;;;;;87.28;43.95;;;1.70;99.90;;;;;;4991440;28;20412;-72
2021/11/11 09:44:28;;;;;;;304.00;85.80;;;1.60;99.90;;;;;;4974190;28;20027;-71
2021/11/11 09:46:55;;;;;;;170.52;62.53;;;1.70;99.90;;;;;;4981720;28;20400;-71
2021/11/11 09:49:21;;;;;;;206.10;61.28;;;1.50;99.90;;;;;;4994954;28;20500;-72
2021/11/11 09:51:50;;;;;;;96.47;48.15;;;1.40;99.90;;;;;;4987751;28;20035;-72
2021/11/11 09:59:41;;;;;;;192.93;70.93;;;1.80;99.90;;;;;;4982198;28;20044;-72
2021/11/11 10:02:08;;;;;;;278.25;76.72;;;1.90;99.90;;;;;;4978808;28;20045;-72
2021/11/11 10:04:35;;;;;;;176.70;69.63;;;1.80;99.90;;;;;;4979396;28;20038;-72
2021/11/11 10:07:01;;;;;;;173.80;70.25;;;1.90;99.90;;;;;;4994024;28;20034;-72
2021/11/11 10:09:28;;;;;;;38.55;33.67;;;1.90;99.90;;;;;;4986859;28;20034;-71
2021/11/11 10:11:54;;;;;;;70.32;48.95;;;2.20;99.90;;;;;;4985568;28;20037;-72
2021/11/11 10:14:32;;;;;;;38.63;33.45;;;2.40;99.90;;;;;;4981771;28;20022;-73
2021/11/11 10:17:02;;;;;;;39.85;35.03;;;2.60;99.90;;;;;;4993212;28;20126;-73
2021/11/11 10:19:31;;;;;;;72.78;44.08;;;2.60;99.90;;;;;;4974685;28;20401;-73
2021/11/11 10:22:02;;;;;;;54.72;42.92;;;2.90;99.90;;;;;;4975049;28;20042;-74
2021/11/11 10:24:46;;;;;;;39.03;34.78;;;2.80;99.90;;;;;;4975128;28;20027;-73
2021/11/11 10:27:30;;;;;;;67.50;48.80;;;2.90;99.90;;;;;;4975180;28;20102;-73
2021/11/11 10:30:05;;;;;;;74.68;52.63;;;2.90;99.90;;;;;;4974776;28;20039;-73
2021/11/11 10:32:43;;;;;;;57.83;39.70;;;3.00;99.90;;;;;;4982950;28;20058;-73
2021/11/11 10:35:15;;;;;;;94.50;58.50;;;3.00;99.90;;;;;;4977031;28;20266;-73
2021/11/11 10:37:53;;;;;;;146.50;60.92;;;3.00;99.90;;;;;;4985031;28;20385;-72
2021/11/11 10:40:23;;;;;;;113.50;60.72;;;2.90;99.90;;;;;;4981263;28;20477;-73
2021/11/11 10:42:50;;;;;;;94.90;50.55;;;3.00;99.90;;;;;;4980536;28;20121;-73
2021/11/11 10:45:20;;;;;;;298.60;72.65;;;3.20;99.90;;;;;;4974755;28;20030;-72
2021/11/11 10:47:49;;;;;;;117.45;46.40;;;3.00;99.90;;;;;;4987186;28;20393;-72
2021/11/11 10:50:21;;;;;;;149.68;53.92;;;2.80;99.90;;;;;;4981136;28;20023;-72
2021/11/11 10:52:50;;;;;;;144.15;57.08;;;2.70;99.90;;;;;;4974490;28;20054;-72
2021/11/11 10:55:38;;;;;;;227.10;66.22;;;2.70;99.90;;;;;;4973233;28;20038;-72
2021/11/11 10:58:03;;;;;;;196.40;64.15;;;2.50;99.90;;;;;;4987636;28;20122;-73
2021/11/11 11:00:34;;;;;;;304.80;79.75;;;2.40;99.90;;;;;;4985416;28;20520;-72
2021/11/11 11:03:10;;;;;;;270.73;57.63;;;2.80;99.90;;;;;;4980593;28;20377;-73
2021/11/11 11:05:50;;;;;;;168.98;43.00;;;2.40;99.90;;;;;;4979101;28;20433;-72
2021/11/11 11:08:22;;;;;;;232.57;77.13;;;2.50;99.90;;;;;;4972016;28;20114;-72
2021/11/11 11:10:52;;;;;;;343.05;88.75;;;2.70;99.90;;;;;;4972666;28;20026;-72
2021/11/11 11:13:21;;;;;;;537.80;97.50;;;2.80;99.90;;;;;;4974598;28;20373;-72
2021/11/11 11:16:09;;;;;;;435.45;96.80;;;2.90;99.90;;;;;;4973993;28;20031;-72
2021/11/11 11:18:40;;;;;;;311.17;80.00;;;3.10;99.90;;;;;;4972901;28;20069;-72
2021/11/11 11:21:13;;;;;;;355.75;65.95;;;3.10;99.90;;;;;;4973862;28;20027;-72
2021/11/11 11:23:45;;;;;;;308.05;58.05;;;3.20;99.90;;;;;;4960858;28;20508;-72
2021/11/11 11:26:21;;;;;;;95.00;38.88;;;3.20;99.90;;;;;;4981199;28;20404;-72
2021/11/11 11:29:00;;;;;;;304.25;69.85;;;3.40;99.90;;;;;;4980186;28;20026;-72
2021/11/11 11:31:42;;;;;;;278.83;70.43;;;3.50;99.90;;;;;;4981721;28;20031;-72
2021/11/11 11:34:14;;;;;;;163.25;59.55;;;3.50;99.90;;;;;;4987482;28;20049;-72
2021/11/11 11:36:44;;;;;;;70.75;46.10;;;3.70;99.90;;;;;;4978900;28;20460;-73
2021/11/11 11:39:18;;;;;;;85.50;49.60;;;3.60;99.90;;;;;;4984090;28;20081;-72
2021/11/11 11:41:44;;;;;;;199.20;73.25;;;3.50;99.90;;;;;;4979754;28;20031;-72
2021/11/11 11:44:25;;;;;;;65.57;41.58;;;3.30;99.90;;;;;;4987602;28;20080;-72
2021/11/11 11:47:01;;;;;;;66.85;47.20;;;3.60;99.90;;;;;;4980441;28;20019;-72
2021/11/11 11:49:27;;;;;;;86.30;56.08;;;3.90;99.90;;;;;;4988126;28;20125;-72
2021/11/11 11:51:53;;;;;;;95.22;59.58;;;4.00;99.90;;;;;;4986232;28;20105;-73
2021/11/11 11:54:27;;;;;;;120.90;59.35;;;3.80;99.90;;;;;;4988118;28;20025;-72
2021/11/11 11:56:58;;;;;;;72.47;50.83;;;3.90;99.90;;;;;;4986263;28;20089;-72
2021/11/11 11:59:28;;;;;;;49.28;40.58;;;3.90;99.90;;;;;;4983359;28;20027;-74
2021/11/11 12:02:05;;;;;;;51.83;42.20;;;4.30;99.90;;;;;;4983457;28;20018;-73
2021/11/11 12:10:26;;;;;;;67.95;48.33;;;4.20;99.90;;;;;;4978125;28;20089;-72
2021/11/11 12:15:57;;;;;;;93.72;50.75;;;4.50;99.90;;;;;;4981249;28;20027;-72
2021/11/11 12:40:31;;;;;;;56.27;45.20;;;4.20;99.90;;;;;;4967385;28;20057;-75
2021/11/11 12:43:00;;;;;;;73.25;52.70;;;4.60;99.90;;;;;;4979253;28;20262;-72
2021/11/11 12:45:34;;;;;;;62.17;48.40;;;4.60;99.90;;;;;;4984768;28;20027;-72
2021/11/11 12:48:05;;;;;;;58.45;46.00;;;4.60;99.90;;;;;;4971508;28;20023;-73
2021/11/11 12:50:49;;;;;;;52.03;42.97;;;4.40;99.90;;;;;;4982118;28;20038;-75
2021/11/11 12:53:19;;;;;;;50.38;41.53;;;4.30;99.90;;;;;;4979171;28;20023;-74
2021/11/11 12:56:05;;;;;;;51.65;41.30;;;4.50;99.90;;;;;;4978731;28;20030;-75
2021/11/11 12:58:47;;;;;;;51.92;41.42;;;4.60;99.90;;;;;;4974651;28;20027;-74
2021/11/11 13:01:30;;;;;;;47.95;39.53;;;4.60;99.90;;;;;;4992877;28;20026;-74
2021/11/11 13:03:58;;;;;;;47.05;38.92;;;4.80;99.90;;;;;;4990808;28;20436;-73
2021/11/11 13:06:42;;;;;;;45.53;37.88;;;4.90;99.90;;;;;;4964667;28;20023;-74
2021/11/11 13:09:20;;;;;;;43.10;36.05;;;4.90;99.90;;;;;;4975083;28;20023;-74
2021/11/11 13:11:55;;;;;;;41.15;36.60;;;5.00;99.90;;;;;;4979967;28;20027;-73
2021/11/11 13:14:24;;;;;;;43.17;36.78;;;4.90;99.90;;;;;;4984318;28;20019;-74
2021/11/11 13:16:56;;;;;;;47.78;37.28;;;4.90;99.90;;;;;;4958963;28;20402;-73
2021/11/11 13:19:41;;;;;;;44.38;36.55;;;4.90;99.90;;;;;;4971143;28;20685;-74
2021/11/11 13:22:20;;;;;;;46.20;38.00;;;5.00;99.90;;;;;;4957988;28;20494;-74